createdAt,value
2022-10-18T00:04:24.688Z,86.74
2022-10-18T00:09:28.088Z,86.54
2022-10-18T00:14:30.752Z,86.71
2022-10-18T00:19:33.429Z,86.70
2022-10-18T00:24:35.944Z,87.09
2022-10-18T00:29:38.354Z,87.27
2022-10-18T00:34:40.827Z,87.42
2022-10-18T00:39:43.407Z,87.54
2022-10-18T00:44:45.788Z,88.01
2022-10-18T00:49:50.225Z,88.04
2022-10-18T00:54:53.123Z,88.07
2022-10-18T00:59:55.740Z,88.31
2022-10-18T01:04:58.297Z,88.42
2022-10-18T01:10:03.830Z,89.09
2022-10-18T01:15:11.360Z,88.94
2022-10-18T01:20:23.016Z,89.01
2022-10-18T01:25:28.422Z,89.10
2022-10-18T01:30:31.815Z,89.32
2022-10-18T01:42:23.099Z,89.99
2022-10-18T01:47:26.853Z,89.92
2022-10-18T01:52:29.595Z,90.24
2022-10-18T01:57:32.225Z,90.54
2022-10-18T02:02:35.591Z,90.60
2022-10-18T02:07:40.995Z,90.60
2022-10-18T02:12:44.872Z,90.73
2022-10-18T02:17:47.278Z,91.08
2022-10-18T02:22:50.983Z,91.26
2022-10-18T02:27:53.698Z,91.48
2022-10-18T02:33:16.819Z,91.82
2022-10-18T02:38:20.328Z,91.84
2022-10-18T02:43:24.122Z,92.59
2022-10-18T02:48:26.645Z,92.45
2022-10-18T02:53:29.035Z,92.55
2022-10-18T02:58:31.416Z,92.69
2022-10-18T03:03:33.797Z,92.56
2022-10-18T03:08:36.457Z,92.71
2022-10-18T03:13:38.830Z,93.19
2022-10-18T03:18:41.260Z,93.98
2022-10-18T03:23:43.707Z,94.05
2022-10-18T03:28:46.191Z,93.92
2022-10-18T03:33:48.596Z,94.09
2022-10-18T03:38:51.033Z,94.38
2022-10-18T03:43:53.409Z,94.08
2022-10-18T03:48:55.799Z,94.52
2022-10-18T03:53:58.192Z,94.90
2022-10-18T03:59:00.791Z,94.95
2022-10-18T04:04:03.346Z,95.49
2022-10-18T04:09:09.349Z,95.19
2022-10-18T04:14:12.811Z,95.31
2022-10-18T04:19:15.239Z,95.07
2022-10-18T04:24:17.995Z,94.73
2022-10-18T04:29:20.532Z,94.71
2022-10-18T04:34:23.028Z,94.76
2022-10-18T04:39:25.499Z,95.05
2022-10-18T04:44:27.900Z,95.19
2022-10-18T04:49:30.305Z,95.07
2022-10-18T04:54:32.756Z,94.99
2022-10-18T05:06:14.218Z,94.75
2022-10-18T05:11:16.630Z,94.86
2022-10-18T05:16:19.049Z,94.73
2022-10-18T05:21:21.489Z,94.47
2022-10-18T05:26:23.861Z,94.04
2022-10-18T05:31:26.288Z,93.87
2022-10-18T05:36:28.726Z,93.67
2022-10-18T05:41:31.502Z,93.34
2022-10-18T05:46:33.993Z,93.44
2022-10-18T05:51:46.165Z,93.80
2022-10-18T05:56:57.658Z,93.74
2022-10-18T06:02:00.036Z,93.77
2022-10-18T06:07:02.481Z,93.58
2022-10-18T06:12:05.341Z,93.24
2022-10-18T06:17:07.736Z,93.41
2022-10-18T06:22:10.716Z,93.41
2022-10-18T06:27:13.183Z,92.86
2022-10-18T06:32:15.917Z,92.57
2022-10-18T06:37:18.365Z,91.88
2022-10-18T06:42:22.618Z,91.84
2022-10-18T06:47:25.249Z,91.73
2022-10-18T06:52:27.789Z,92.00
2022-10-18T06:57:30.293Z,91.29
2022-10-18T07:02:33.160Z,91.10
2022-10-18T07:07:36.161Z,90.99
2022-10-18T07:12:38.710Z,90.58
2022-10-18T07:17:41.728Z,89.89
2022-10-18T07:22:44.100Z,88.50
2022-10-18T07:27:46.514Z,88.31
2022-10-18T07:32:50.828Z,88.79
2022-10-18T07:37:53.239Z,88.68
2022-10-18T07:42:55.640Z,88.41
2022-10-18T07:47:58.078Z,88.17
2022-10-18T07:53:00.487Z,88.18
2022-10-18T07:58:03.205Z,88.01
2022-10-18T08:03:06.064Z,87.73
2022-10-18T08:08:08.448Z,87.40
2022-10-18T08:13:10.790Z,87.61
2022-10-18T08:18:13.188Z,87.92
2022-10-18T08:23:15.586Z,88.29
2022-10-18T08:28:18.091Z,88.95
2022-10-18T08:33:20.480Z,89.24
2022-10-18T08:38:23.208Z,89.60
2022-10-18T08:43:25.631Z,89.78
2022-10-18T08:48:32.903Z,89.60
2022-10-18T08:53:39.215Z,89.17
2022-10-18T08:58:44.173Z,89.62
2022-10-18T09:03:55.810Z,89.93
2022-10-18T09:09:01.135Z,90.05
2022-10-18T09:14:15.483Z,90.31
2022-10-18T09:19:26.171Z,90.43
2022-10-18T09:24:36.947Z,90.84
2022-10-18T09:29:42.264Z,90.86
2022-10-18T09:34:50.565Z,90.99
2022-10-18T09:39:59.927Z,90.92
2022-10-18T09:45:04.167Z,89.76
2022-10-18T09:50:26.526Z,89.12
2022-10-18T09:55:33.867Z,89.31
2022-10-18T10:00:41.116Z,89.87
2022-10-18T10:05:44.436Z,90.42
2022-10-18T10:10:47.463Z,90.53
2022-10-18T10:15:53.161Z,89.95
2022-10-18T10:20:57.363Z,89.86
2022-10-18T10:26:01.897Z,89.81
2022-10-18T10:31:07.199Z,90.03
2022-10-18T10:36:12.508Z,89.96
2022-10-18T10:41:20.040Z,89.52
2022-10-18T10:46:23.224Z,89.47
2022-10-18T10:51:28.774Z,90.07
2022-10-18T10:56:33.700Z,90.45
2022-10-18T11:01:37.314Z,90.79
2022-10-18T11:06:44.842Z,91.33
2022-10-18T11:11:53.272Z,91.34
2022-10-18T11:17:04.234Z,91.51
2022-10-18T11:22:13.642Z,91.31
2022-10-18T11:27:22.738Z,91.24
2022-10-18T11:32:31.039Z,91.32
2022-10-18T11:37:37.554Z,91.26
2022-10-18T11:42:41.694Z,91.68
2022-10-18T11:47:53.704Z,91.89
2022-10-18T11:53:01.455Z,92.51
2022-10-18T11:58:13.040Z,92.35
2022-10-18T12:03:19.689Z,92.87
2022-10-18T12:08:26.798Z,92.79
2022-10-18T12:13:32.163Z,92.19
2022-10-18T12:18:36.024Z,92.35
2022-10-18T12:23:42.184Z,92.18
2022-10-18T12:28:47.610Z,92.12
2022-10-18T12:33:53.756Z,92.41
2022-10-18T12:38:59.915Z,92.36
2022-10-18T12:44:06.497Z,91.73
2022-10-18T12:49:11.060Z,91.49
2022-10-18T12:54:17.184Z,91.97
2022-10-18T12:59:19.899Z,92.54
2022-10-18T13:04:25.215Z,92.85
2022-10-18T13:09:28.747Z,92.62
2022-10-18T13:14:35.406Z,92.13
2022-10-18T13:19:37.859Z,92.49
2022-10-18T13:24:45.230Z,92.43
2022-10-18T13:29:52.852Z,92.47
2022-10-18T13:34:55.807Z,92.43
2022-10-18T13:40:01.152Z,92.15
2022-10-18T13:45:06.487Z,92.42
2022-10-18T13:50:16.514Z,92.60
2022-10-18T13:55:21.914Z,93.21
2022-10-18T14:00:27.481Z,94.26
2022-10-18T14:05:32.765Z,94.78
2022-10-18T14:10:57.510Z,95.16
2022-10-18T14:16:07.503Z,95.46
2022-10-18T14:21:19.926Z,95.87
2022-10-18T14:26:24.329Z,96.29
2022-10-18T14:31:26.832Z,96.64
2022-10-18T14:36:30.685Z,97.13
2022-10-18T14:41:34.591Z,97.26
2022-10-18T14:46:41.825Z,97.33
2022-10-18T14:51:45.500Z,97.51
2022-10-18T14:56:48.166Z,97.11
2022-10-18T15:01:53.944Z,97.69
2022-10-18T15:06:56.953Z,97.90
2022-10-18T15:12:00.601Z,98.19
2022-10-18T15:17:07.368Z,98.57
2022-10-18T15:27:35.487Z,99.98
2022-10-18T15:32:40.227Z,100.00
2022-10-18T15:37:43.962Z,100.00
2022-10-18T15:42:46.906Z,100.00
2022-10-18T15:47:52.216Z,100.00
2022-10-18T15:52:54.844Z,100.00
2022-10-18T15:58:03.048Z,100.00
2022-10-18T16:03:07.508Z,100.00
2022-10-18T16:08:12.822Z,100.00
2022-10-18T16:13:15.486Z,100.00
2022-10-18T16:18:19.002Z,100.00
2022-10-18T16:23:25.313Z,100.00
2022-10-18T16:28:28.164Z,100.00
2022-10-18T16:33:30.911Z,100.00
2022-10-18T16:38:35.490Z,100.00
2022-10-18T16:43:39.467Z,100.00
2022-10-18T16:48:42.848Z,100.00
2022-10-18T16:53:45.467Z,100.00
2022-10-18T16:58:48.441Z,100.00
2022-10-18T17:03:53.822Z,100.00
2022-10-18T17:08:56.847Z,100.00
2022-10-18T17:13:59.294Z,100.00
2022-10-18T17:19:02.816Z,100.00
2022-10-18T17:24:06.207Z,100.00
2022-10-18T17:29:08.992Z,100.00
2022-10-18T17:34:11.380Z,100.00
2022-10-18T17:39:13.791Z,100.00
2022-10-18T17:44:16.333Z,100.00
2022-10-18T17:49:18.765Z,100.00
2022-10-18T17:54:21.162Z,100.00
2022-10-18T17:59:23.554Z,100.00
2022-10-18T18:04:26.074Z,100.00
2022-10-18T18:09:28.632Z,100.00
2022-10-18T18:14:31.140Z,100.00
2022-10-18T18:19:33.648Z,100.00
2022-10-18T18:24:36.167Z,100.00
2022-10-18T18:29:38.575Z,100.00
2022-10-18T18:34:41.666Z,100.00
2022-10-18T18:39:44.032Z,100.00
2022-10-18T18:44:46.480Z,100.00
2022-10-18T18:49:49.308Z,100.00
2022-10-18T18:54:51.690Z,100.00
2022-10-18T18:59:54.038Z,100.00
2022-10-18T19:04:56.449Z,100.00
2022-10-18T19:09:58.849Z,100.00
2022-10-18T19:15:01.500Z,100.00
2022-10-18T19:20:05.042Z,100.00
2022-10-18T19:25:08.046Z,100.00
2022-10-18T19:30:11.183Z,100.00
2022-10-18T19:35:13.638Z,100.00
2022-10-18T19:40:16.027Z,100.00
2022-10-18T19:45:18.486Z,100.00
2022-10-18T19:50:20.916Z,100.00
2022-10-18T19:55:25.079Z,100.00
2022-10-18T20:00:27.602Z,100.00
2022-10-18T20:05:30.328Z,100.00
2022-10-18T20:10:32.759Z,100.00
2022-10-18T20:15:35.162Z,100.00
2022-10-18T20:20:37.603Z,100.00
2022-10-18T20:25:39.988Z,100.00
2022-10-18T20:30:42.359Z,100.00
2022-10-18T20:35:47.687Z,100.00
2022-10-18T20:40:53.777Z,100.00
2022-10-18T20:45:56.820Z,100.00
2022-10-18T20:51:02.128Z,100.00
2022-10-18T20:56:05.851Z,100.00
2022-10-18T21:01:11.069Z,100.00
2022-10-18T21:06:14.832Z,100.00
2022-10-18T21:11:17.251Z,100.00
2022-10-18T21:16:20.045Z,100.00
2022-10-18T21:21:23.519Z,100.00
2022-10-18T21:26:26.629Z,100.00
2022-10-18T21:31:29.986Z,100.00
2022-10-18T21:36:33.864Z,100.00
2022-10-18T21:41:36.458Z,100.00
2022-10-18T21:46:39.583Z,100.00
2022-10-18T21:51:42.054Z,100.00
2022-10-18T21:56:44.856Z,100.00
2022-10-18T22:01:47.335Z,100.00
2022-10-18T22:06:50.097Z,100.00
2022-10-18T22:11:53.245Z,100.00
2022-10-18T22:16:55.632Z,100.00
2022-10-18T22:21:57.989Z,100.00
2022-10-18T22:27:00.565Z,100.00
2022-10-18T22:32:02.972Z,100.00
2022-10-18T22:37:05.697Z,100.00
2022-10-18T22:42:08.132Z,100.00
2022-10-18T22:47:10.493Z,100.00
2022-10-18T22:52:12.839Z,100.00
2022-10-18T22:57:15.252Z,100.00
2022-10-18T23:02:17.634Z,100.00
2022-10-18T23:07:20.107Z,100.00
2022-10-18T23:12:22.584Z,100.00
2022-10-18T23:17:25.008Z,100.00
2022-10-18T23:22:27.367Z,100.00
2022-10-18T23:27:30.008Z,100.00
2022-10-18T23:32:33.031Z,100.00
2022-10-18T23:37:35.999Z,100.00
2022-10-18T23:42:38.808Z,100.00
2022-10-18T23:47:41.200Z,100.00
2022-10-18T23:52:43.594Z,100.00
2022-10-18T23:57:46.016Z,100.00
